Time;durP1;ratioP1;P1;durP2;ratioP2;P2;SDS_P1;SDS_P2;PMS_P1;PMS_P2;Temp;Humidity;BMP_temperature;BMP_pressure;BME280_temperature;BME280_humidity;BME280_pressure;Samples;Min_cycle;Max_cycle;Signal;HPM_P1;HPM_P2
2023/01/31 00:01:24;;;;;;;26.40;3.92;;;3.10;99.90;;;;;;4935596;29;20031;-62
2023/01/31 00:03:58;;;;;;;27.33;2.97;;;3.00;99.90;;;;;;4965757;28;20026;-63
2023/01/31 00:06:25;;;;;;;;;;;3.10;99.90;;;;;;4940595;29;20023;-63
2023/01/31 00:08:51;;;;;;;33.47;2.05;;;3.10;99.90;;;;;;4944124;29;20363;-62
2023/01/31 00:11:19;;;;;;;30.65;2.83;;;3.10;99.90;;;;;;4942364;28;20044;-62
2023/01/31 00:13:46;;;;;;;32.47;5.15;;;3.00;99.90;;;;;;4936380;29;20044;-59
2023/01/31 00:16:13;;;;;;;36.15;3.03;;;3.00;99.90;;;;;;4934751;29;20024;-62
2023/01/31 00:18:39;;;;;;;25.45;2.28;;;3.40;99.90;;;;;;4941278;29;20031;-63
2023/01/31 00:21:11;;;;;;;29.13;2.45;;;3.20;99.90;;;;;;4954145;28;20438;-63
2023/01/31 00:23:37;;;;;;;36.08;3.03;;;3.10;99.90;;;;;;4948287;28;20031;-63
2023/01/31 00:26:14;;;;;;;22.88;3.03;;;3.10;99.90;;;;;;4933520;29;20102;-64
2023/01/31 00:28:41;;;;;;;23.05;2.55;;;3.10;99.90;;;;;;4940922;29;20031;-63
2023/01/31 00:31:08;;;;;;;26.15;2.22;;;3.00;99.90;;;;;;4944679;28;20042;-61
2023/01/31 00:33:37;;;;;;;28.08;2.30;;;3.00;99.90;;;;;;4946970;29;20501;-62
2023/01/31 00:36:09;;;;;;;29.83;2.10;;;3.70;99.90;;;;;;4934536;29;20078;-62
2023/01/31 00:38:35;;;;;;;25.00;2.40;;;3.00;99.90;;;;;;4939103;29;20027;-61
2023/01/31 00:41:02;;;;;;;23.70;1.88;;;2.90;99.90;;;;;;4954546;28;20019;-59
2023/01/31 00:43:29;;;;;;;24.50;3.33;;;3.00;99.90;;;;;;4950044;28;20090;-61
2023/01/31 00:45:55;;;;;;;14.98;1.77;;;3.10;99.90;;;;;;4934989;29;20034;-57
2023/01/31 00:48:20;;;;;;;38.75;3.05;;;3.00;99.90;;;;;;4938263;29;20035;-60
2023/01/31 00:50:46;;;;;;;23.80;2.17;;;3.00;99.90;;;;;;4952940;29;20106;-61
2023/01/31 00:53:12;;;;;;;25.88;2.20;;;3.00;99.90;;;;;;4950179;28;20039;-63
2023/01/31 00:55:37;;;;;;;30.42;5.40;;;3.00;99.90;;;;;;4934117;29;20115;-57
2023/01/31 00:58:03;;;;;;;17.88;2.28;;;3.00;99.90;;;;;;4935847;29;20028;-61
2023/01/31 01:00:29;;;;;;;32.80;2.08;;;3.30;99.90;;;;;;4950060;28;20050;-62
2023/01/31 01:02:55;;;;;;;31.60;1.95;;;3.20;99.90;;;;;;4951455;28;20062;-61
2023/01/31 01:05:20;;;;;;;22.42;2.05;;;3.30;99.90;;;;;;4953665;28;20214;-62
2023/01/31 01:07:46;;;;;;;25.15;2.47;;;3.30;99.90;;;;;;4944422;28;20513;-61
2023/01/31 01:10:12;;;;;;;24.77;2.38;;;3.30;99.90;;;;;;4934177;29;20028;-59
2023/01/31 01:12:38;;;;;;;14.70;1.58;;;3.30;99.90;;;;;;4939726;29;20024;-62
2023/01/31 01:15:04;;;;;;;18.05;1.92;;;3.30;99.90;;;;;;4952111;28;20493;-62
2023/01/31 01:17:30;;;;;;;21.88;2.33;;;3.30;99.90;;;;;;4935088;29;20058;-62
2023/01/31 01:19:56;;;;;;;30.35;2.05;;;3.90;99.90;;;;;;4933792;29;20028;-62
2023/01/31 01:22:21;;;;;;;17.70;1.75;;;3.40;99.90;;;;;;4952516;29;20028;-62
2023/01/31 01:24:47;;;;;;;27.27;2.75;;;3.40;99.90;;;;;;4937432;28;20042;-61
2023/01/31 01:27:12;;;;;;;23.85;2.97;;;3.40;99.90;;;;;;4937527;29;20501;-62
2023/01/31 01:29:39;;;;;;;23.63;2.05;;;3.60;99.90;;;;;;4933794;29;20032;-62
2023/01/31 01:32:06;;;;;;;6.10;1.45;;;3.50;99.90;;;;;;4944760;29;20087;-61
2023/01/31 01:34:32;;;;;;;19.05;1.80;;;3.40;99.90;;;;;;4952735;28;20111;-60
2023/01/31 01:36:58;;;;;;;19.80;2.45;;;3.40;99.90;;;;;;4948976;28;20098;-61
2023/01/31 01:39:24;;;;;;;25.42;3.45;;;3.40;99.90;;;;;;4953084;28;20449;-61
2023/01/31 01:41:51;;;;;;;17.70;1.77;;;3.50;99.90;;;;;;4940362;28;20404;-61
2023/01/31 01:44:41;;;;;;;26.23;1.85;;;3.40;99.90;;;;;;4934247;29;20051;-61
2023/01/31 01:47:43;;;;;;;28.85;5.35;;;3.40;99.90;;;;;;4949416;29;20031;-60
2023/01/31 01:50:15;;;;;;;34.08;2.83;;;3.40;99.90;;;;;;4949600;28;20046;-61
2023/01/31 01:52:51;;;;;;;20.42;2.33;;;3.40;99.90;;;;;;4950982;29;20023;-62
2023/01/31 01:56:00;;;;;;;20.55;2.50;;;3.50;99.90;;;;;;4951794;28;20024;-61
2023/01/31 01:58:30;;;;;;;15.77;1.40;;;3.40;99.90;;;;;;4912040;29;20043;-62
2023/01/31 02:00:56;;;;;;;14.85;1.63;;;3.40;99.90;;;;;;4911807;29;20035;-63
2023/01/31 02:03:22;;;;;;;14.73;1.70;;;3.40;99.90;;;;;;4894832;29;20184;-64
2023/01/31 02:05:55;;;;;;;21.27;1.83;;;3.50;99.90;;;;;;4887759;29;20391;-64
2023/01/31 02:08:24;;;;;;;15.75;1.95;;;3.50;99.90;;;;;;4912354;29;20063;-61
2023/01/31 02:10:57;;;;;;;29.38;2.17;;;4.00;99.90;;;;;;4902683;29;20045;-63
2023/01/31 02:13:24;;;;;;;8.40;1.73;;;3.50;99.90;;;;;;4877844;29;20028;-64
2023/01/31 02:15:49;;;;;;;12.32;1.48;;;3.50;99.90;;;;;;4900509;29;20065;-64
2023/01/31 02:18:18;;;;;;;16.88;2.15;;;3.50;99.90;;;;;;4913430;29;20061;-61
2023/01/31 02:21:15;;;;;;;21.48;1.92;;;3.70;99.90;;;;;;4897748;29;20047;-62
2023/01/31 02:23:53;;;;;;;23.60;3.13;;;3.50;99.90;;;;;;4960447;23;20058;-65
2023/01/31 02:26:34;;;;;;;20.42;1.65;;;3.50;99.90;;;;;;4973271;28;20505;-65
2023/01/31 02:28:59;;;;;;;17.98;1.50;;;3.40;99.90;;;;;;4975561;28;20029;-65
2023/01/31 02:31:42;;;;;;;20.33;1.85;;;3.40;99.90;;;;;;4962035;28;20118;-64
2023/01/31 02:34:11;;;;;;;11.60;1.77;;;3.40;99.90;;;;;;4955927;28;20107;-63
2023/01/31 02:36:54;;;;;;;23.80;1.92;;;3.40;99.90;;;;;;4970949;28;20030;-62
2023/01/31 02:39:48;;;;;;;20.70;2.22;;;3.40;99.90;;;;;;4974962;28;20042;-65
2023/01/31 02:42:34;;;;;;;18.23;1.52;;;3.40;99.90;;;;;;4956041;28;20122;-64
2023/01/31 02:45:16;;;;;;;15.30;1.58;;;3.40;99.90;;;;;;4974419;28;20034;-62
2023/01/31 02:48:01;;;;;;;9.70;1.65;;;3.30;99.90;;;;;;4974912;28;20023;-65
2023/01/31 02:50:45;;;;;;;23.80;2.22;;;3.20;99.90;;;;;;4973238;28;20447;-65
2023/01/31 02:53:18;;;;;;;23.52;3.00;;;3.20;99.90;;;;;;4967301;28;20540;-65
2023/01/31 02:56:16;;;;;;;31.23;3.05;;;3.10;99.90;;;;;;4963347;28;20035;-64
2023/01/31 02:59:07;;;;;;;26.23;2.28;;;3.30;99.90;;;;;;4973619;28;20038;-63
2023/01/31 03:01:44;;;;;;;20.27;2.05;;;3.00;99.90;;;;;;4968894;28;20046;-63
2023/01/31 03:04:12;;;;;;;34.55;2.55;;;2.80;99.90;;;;;;4972557;28;20146;-63
2023/01/31 03:06:53;;;;;;;15.88;1.75;;;2.80;99.90;;;;;;4973883;28;20081;-64
2023/01/31 03:09:30;;;;;;;10.25;1.80;;;2.80;99.90;;;;;;4974221;28;20042;-62
2023/01/31 03:12:20;;;;;;;11.32;1.50;;;2.70;99.90;;;;;;4972849;28;20035;-62
2023/01/31 03:15:20;;;;;;;29.30;1.60;;;2.70;99.90;;;;;;4973997;28;20511;-61
2023/01/31 03:18:09;;;;;;;17.98;1.38;;;2.80;99.90;;;;;;4973670;28;20488;-62
2023/01/31 03:20:43;;;;;;;13.85;1.83;;;2.90;99.90;;;;;;4966560;28;20046;-59
2023/01/31 03:23:21;;;;;;;19.52;1.73;;;2.70;99.90;;;;;;4974690;28;20030;-63
2023/01/31 03:25:48;;;;;;;13.07;1.30;;;2.60;99.90;;;;;;4974535;28;20058;-63
2023/01/31 03:28:21;;;;;;;14.80;1.90;;;2.60;99.90;;;;;;4974369;28;20038;-64
2023/01/31 03:30:52;;;;;;;15.52;1.40;;;2.60;99.90;;;;;;4974006;28;20037;-62
2023/01/31 03:33:39;;;;;;;17.02;2.58;;;2.60;99.90;;;;;;4973075;28;20086;-63
2023/01/31 03:36:07;;;;;;;15.10;1.67;;;2.60;99.90;;;;;;4954842;28;20090;-63
2023/01/31 03:38:35;;;;;;;18.75;1.48;;;3.00;99.90;;;;;;4966233;28;20034;-63
2023/01/31 03:41:32;;;;;;;23.58;1.58;;;2.70;99.90;;;;;;4974197;28;20026;-63
2023/01/31 03:44:16;;;;;;;25.70;1.48;;;2.50;99.90;;;;;;4921297;28;20032;-65
2023/01/31 03:46:48;;;;;;;19.98;1.27;;;2.60;99.90;;;;;;4973396;28;20086;-64
2023/01/31 03:49:16;;;;;;;19.38;1.73;;;2.50;99.90;;;;;;4973679;28;20062;-65
2023/01/31 03:51:47;;;;;;;16.35;1.60;;;2.40;99.90;;;;;;4973602;28;20035;-58
2023/01/31 03:54:28;;;;;;;17.08;1.98;;;2.30;99.90;;;;;;4973206;28;20042;-61
2023/01/31 03:57:05;;;;;;;15.38;1.88;;;2.50;99.90;;;;;;4973166;28;20039;-64
2023/01/31 03:59:38;;;;;;;19.50;2.58;;;2.50;99.90;;;;;;4973239;28;20039;-62
2023/01/31 04:02:09;;;;;;;25.00;2.78;;;2.50;99.90;;;;;;4973859;28;20022;-65
2023/01/31 04:04:45;;;;;;;22.10;1.80;;;2.40;99.90;;;;;;4973334;28;20023;-65
2023/01/31 04:07:11;;;;;;;31.23;2.53;;;2.40;99.90;;;;;;4972944;28;20113;-60
2023/01/31 04:09:38;;;;;;;12.55;1.67;;;2.40;99.90;;;;;;4973423;28;20106;-63
2023/01/31 04:12:04;;;;;;;18.90;1.90;;;2.40;99.90;;;;;;4972925;28;20030;-65
2023/01/31 04:14:30;;;;;;;34.08;3.65;;;2.50;99.90;;;;;;4972847;28;20038;-65
2023/01/31 04:16:55;;;;;;;15.10;1.48;;;2.40;99.90;;;;;;4962463;28;20041;-65
2023/01/31 04:19:21;;;;;;;23.35;2.13;;;3.10;99.90;;;;;;4968069;28;20127;-63
2023/01/31 04:21:47;;;;;;;12.55;1.77;;;2.40;99.90;;;;;;4968627;28;20094;-64
2023/01/31 04:24:12;;;;;;;19.83;1.90;;;2.40;99.90;;;;;;4967566;28;20106;-63
2023/01/31 04:26:38;;;;;;;29.30;1.90;;;2.40;99.90;;;;;;4968296;28;20023;-65
2023/01/31 04:29:04;;;;;;;19.92;1.90;;;2.40;99.90;;;;;;4968178;28;20527;-65
2023/01/31 04:31:30;;;;;;;28.17;2.22;;;2.40;99.90;;;;;;4967564;28;20401;-62
2023/01/31 04:33:56;;;;;;;13.60;2.28;;;2.40;99.90;;;;;;4968685;28;20026;-64
2023/01/31 04:36:25;;;;;;;26.95;1.80;;;2.40;99.90;;;;;;4967272;28;20069;-62
2023/01/31 04:38:51;;;;;;;19.77;1.65;;;2.30;99.90;;;;;;4967098;28;20062;-61
2023/01/31 04:41:16;;;;;;;31.35;2.67;;;2.30;99.90;;;;;;4967958;28;20022;-57
2023/01/31 04:43:42;;;;;;;26.40;2.30;;;2.30;99.90;;;;;;4967001;28;20425;-64
2023/01/31 04:46:08;;;;;;;41.20;2.45;;;2.30;99.90;;;;;;4967698;28;20027;-61
2023/01/31 04:48:33;;;;;;;22.80;1.85;;;2.30;99.90;;;;;;4967836;28;20575;-64
2023/01/31 04:50:59;;;;;;;18.35;1.98;;;2.30;99.90;;;;;;4967303;28;20042;-64
2023/01/31 04:53:24;;;;;;;23.00;3.03;;;2.30;99.90;;;;;;4967570;28;20050;-64
2023/01/31 04:55:54;;;;;;;25.65;2.65;;;2.30;99.90;;;;;;4967354;28;20169;-64
2023/01/31 04:58:19;;;;;;;39.70;2.80;;;2.90;99.90;;;;;;4969155;28;20413;-63
2023/01/31 05:00:45;;;;;;;29.58;2.30;;;2.20;99.90;;;;;;4971377;28;20037;-62
2023/01/31 05:03:11;;;;;;;27.70;1.95;;;2.20;99.90;;;;;;4966628;28;20022;-62
2023/01/31 05:05:37;;;;;;;19.35;1.48;;;2.30;99.90;;;;;;4967120;28;20034;-62
2023/01/31 05:08:03;;;;;;;22.35;2.25;;;2.20;99.90;;;;;;4967065;28;20035;-64
2023/01/31 05:10:29;;;;;;;24.20;2.22;;;2.20;99.90;;;;;;4965365;28;20101;-62
2023/01/31 05:12:54;;;;;;;19.30;1.92;;;2.20;99.90;;;;;;4967342;28;20037;-63
2023/01/31 05:15:20;;;;;;;22.30;2.47;;;3.70;99.90;;;;;;4966872;28;20035;-60
2023/01/31 05:18:02;;;;;;;22.23;2.80;;;2.20;99.90;;;;;;4966696;28;20089;-61
2023/01/31 05:20:30;;;;;;;12.25;1.73;;;2.30;99.90;;;;;;4966848;28;20480;-63
2023/01/31 05:22:56;;;;;;;20.42;1.52;;;2.40;99.90;;;;;;4967163;28;20046;-64
2023/01/31 05:25:21;;;;;;;17.90;1.50;;;2.50;99.90;;;;;;4966444;28;20058;-62
2023/01/31 05:27:47;;;;;;;17.13;1.80;;;2.40;99.90;;;;;;4966373;28;20055;-60
2023/01/31 05:30:13;;;;;;;25.27;4.40;;;2.40;99.90;;;;;;4967154;28;20404;-64
2023/01/31 05:32:39;;;;;;;22.08;2.13;;;2.40;99.90;;;;;;4966657;28;20077;-63
2023/01/31 05:35:05;;;;;;;15.40;1.25;;;2.50;99.90;;;;;;4966714;28;20031;-60
2023/01/31 05:37:31;;;;;;;14.38;1.80;;;0.70;99.90;;;;;;4967025;28;20437;-63
2023/01/31 05:39:56;;;;;;;19.33;2.85;;;2.90;99.90;;;;;;4966126;28;20031;-62
2023/01/31 05:42:22;;;;;;;12.23;2.25;;;2.70;99.90;;;;;;4967314;28;20113;-65
2023/01/31 05:44:47;;;;;;;12.45;1.75;;;2.70;99.90;;;;;;4966168;28;20522;-58
2023/01/31 05:47:13;;;;;;;7.97;1.38;;;2.80;99.90;;;;;;4966791;28;20027;-61
2023/01/31 05:49:39;;;;;;;15.95;2.38;;;2.80;99.90;;;;;;4966687;28;20106;-64
2023/01/31 05:52:04;;;;;;;19.40;2.58;;;2.90;99.90;;;;;;4966620;28;20061;-63
2023/01/31 05:54:30;;;;;;;20.38;1.95;;;3.10;99.90;;;;;;4970868;28;20051;-60
2023/01/31 05:56:55;;;;;;;13.80;2.35;;;3.00;99.90;;;;;;4969937;28;20369;-63
2023/01/31 05:59:21;;;;;;;25.48;2.13;;;3.00;99.90;;;;;;4970475;28;20093;-62
2023/01/31 06:01:47;;;;;;;13.77;1.58;;;3.00;99.90;;;;;;4970618;28;20062;-62
2023/01/31 06:04:12;;;;;;;21.75;2.35;;;3.10;99.90;;;;;;4970435;28;20081;-60
2023/01/31 06:06:38;;;;;;;29.60;2.83;;;3.10;99.90;;;;;;4970257;28;20022;-64
2023/01/31 06:09:04;;;;;;;21.08;2.63;;;3.00;99.90;;;;;;4969880;28;20023;-65
2023/01/31 06:11:29;;;;;;;16.20;2.17;;;3.10;99.90;;;;;;4970315;28;20027;-60
2023/01/31 06:13:56;;;;;;;25.63;2.22;;;3.10;99.90;;;;;;4970603;28;20552;-64
2023/01/31 06:16:22;;;;;;;25.70;2.30;;;3.10;99.90;;;;;;4969673;28;20496;-64
2023/01/31 06:18:48;;;;;;;25.10;2.15;;;3.10;99.90;;;;;;4970579;28;20090;-62
2023/01/31 06:21:15;;;;;;;23.27;1.75;;;3.20;99.90;;;;;;4970015;28;20475;-54
2023/01/31 06:23:45;;;;;;;45.20;3.70;;;3.20;99.90;;;;;;4969773;28;20027;-60
2023/01/31 06:26:11;;;;;;;16.63;1.65;;;3.20;99.90;;;;;;4969749;28;20030;-61
2023/01/31 06:28:37;;;;;;;23.55;2.20;;;3.20;99.90;;;;;;4970338;28;20323;-61
2023/01/31 06:31:10;;;;;;;13.23;1.58;;;3.20;99.90;;;;;;4968813;28;20039;-61
2023/01/31 06:33:37;;;;;;;32.00;2.85;;;3.20;99.90;;;;;;4968831;28;20559;-61
2023/01/31 06:36:03;;;;;;;19.98;2.15;;;3.20;99.90;;;;;;4970646;28;20061;-63
2023/01/31 06:38:29;;;;;;;18.13;2.55;;;3.20;99.90;;;;;;4969212;28;20034;-59
2023/01/31 06:40:55;;;;;;;16.85;2.08;;;3.20;99.90;;;;;;4969254;28;20023;-61
2023/01/31 06:43:21;;;;;;;19.90;2.42;;;3.30;99.90;;;;;;4970351;28;20027;-64
2023/01/31 06:45:48;;;;;;;14.02;1.80;;;3.60;99.90;;;;;;4968992;28;20022;-64
2023/01/31 06:48:14;;;;;;;23.67;2.88;;;3.30;99.90;;;;;;4968783;28;20045;-63
2023/01/31 06:50:40;;;;;;;21.73;1.75;;;3.30;99.90;;;;;;4969604;28;20404;-66
2023/01/31 06:53:06;;;;;;;23.33;1.98;;;3.30;99.90;;;;;;4969520;28;20122;-62
2023/01/31 06:55:32;;;;;;;17.58;2.60;;;3.50;99.90;;;;;;4969888;28;20053;-66
2023/01/31 06:57:57;;;;;;;42.50;4.85;;;3.40;99.90;;;;;;4968575;28;20034;-60
2023/01/31 07:00:24;;;;;;;24.98;2.15;;;3.30;99.90;;;;;;4969722;28;20033;-62
2023/01/31 07:02:51;;;;;;;13.80;1.42;;;3.40;99.90;;;;;;4969489;28;20026;-64
2023/01/31 07:05:17;;;;;;;17.23;2.30;;;3.40;99.90;;;;;;4967304;28;20386;-64
2023/01/31 07:07:42;;;;;;;17.38;1.75;;;3.40;99.90;;;;;;4969149;28;20026;-61
2023/01/31 07:10:09;;;;;;;22.83;3.10;;;3.40;99.90;;;;;;4969230;28;20026;-64
2023/01/31 07:12:35;;;;;;;22.52;1.98;;;3.30;99.90;;;;;;4967875;28;20053;-61
2023/01/31 07:15:01;;;;;;;32.50;4.47;;;3.30;99.90;;;;;;4968762;28;20055;-63
2023/01/31 07:17:26;;;;;;;7.97;1.75;;;3.40;99.90;;;;;;4968756;28;20597;-60
2023/01/31 07:19:52;;;;;;;26.98;3.25;;;3.40;99.90;;;;;;4967958;28;20043;-62
2023/01/31 07:22:17;;;;;;;25.58;1.90;;;3.40;99.90;;;;;;4969152;28;20031;-63
2023/01/31 07:24:43;;;;;;;74.78;20.45;;;3.40;99.90;;;;;;4968626;28;20552;-62
2023/01/31 07:27:12;;;;;;;36.83;5.97;;;3.40;99.90;;;;;;4970442;28;20027;-60
2023/01/31 07:29:38;;;;;;;31.15;7.00;;;3.70;99.90;;;;;;4972338;28;20023;-64
2023/01/31 07:32:04;;;;;;;27.52;2.50;;;3.70;99.90;;;;;;4967899;28;20042;-64
2023/01/31 07:34:30;;;;;;;58.60;6.93;;;3.60;99.90;;;;;;4968231;28;20038;-60
2023/01/31 07:36:55;;;;;;;23.38;3.42;;;3.60;99.90;;;;;;4967316;28;20664;-64
2023/01/31 07:39:22;;;;;;;35.65;9.80;;;3.60;99.90;;;;;;4968222;28;20085;-65
2023/01/31 07:41:48;;;;;;;50.38;5.03;;;3.60;99.90;;;;;;4969346;28;20054;-58
2023/01/31 07:44:14;;;;;;;36.55;5.03;;;3.60;99.90;;;;;;4972642;28;20019;-67
2023/01/31 07:46:40;;;;;;;18.60;2.38;;;3.60;99.90;;;;;;4969495;28;20037;-65
2023/01/31 07:49:08;;;;;;;36.65;3.50;;;3.60;99.90;;;;;;4973500;28;20114;-67
2023/01/31 07:51:34;;;;;;;13.30;1.98;;;3.60;99.90;;;;;;4968493;28;20038;-66
2023/01/31 07:54:01;;;;;;;25.80;2.50;;;3.60;99.90;;;;;;4968005;28;20030;-63
2023/01/31 07:56:27;;;;;;;17.90;2.00;;;3.60;99.90;;;;;;4969223;28;20043;-67
2023/01/31 07:58:53;;;;;;;14.57;2.08;;;3.70;99.90;;;;;;4969546;28;20041;-66
2023/01/31 08:04:10;;;;;;;22.85;3.03;;;3.70;99.90;;;;;;4969424;28;20034;-67
2023/01/31 08:06:38;;;;;;;24.85;3.33;;;3.70;99.90;;;;;;4968901;28;20623;-67
2023/01/31 08:09:04;;;;;;;29.98;3.95;;;4.10;99.90;;;;;;4968202;28;20046;-65
2023/01/31 08:11:29;;;;;;;13.27;1.95;;;3.80;99.90;;;;;;4967765;28;20031;-65
2023/01/31 08:13:55;;;;;;;15.68;2.20;;;4.00;99.90;;;;;;4968454;28;20050;-66
2023/01/31 08:16:21;;;;;;;14.15;2.95;;;3.80;99.90;;;;;;4967668;28;20077;-65
2023/01/31 08:18:47;;;;;;;23.20;2.00;;;3.90;99.90;;;;;;4967898;28;20027;-63
2023/01/31 08:21:14;;;;;;;19.77;2.13;;;3.90;99.90;;;;;;4968710;28;20488;-66
2023/01/31 08:26:14;;;;;;;13.88;1.58;;;4.00;99.90;;;;;;4927733;29;20054;-60
2023/01/31 08:28:41;;;;;;;18.65;1.55;;;3.90;99.90;;;;;;4929229;29;20032;-61
2023/01/31 08:31:15;;;;;;;20.05;2.55;;;4.00;99.90;;;;;;4929022;29;20461;-63
2023/01/31 08:33:41;;;;;;;17.63;1.90;;;4.20;99.90;;;;;;4930742;29;20034;-60
2023/01/31 08:36:31;;;;;;;12.60;2.08;;;3.90;99.90;;;;;;4948770;28;20030;-62
2023/01/31 08:38:57;;;;;;;18.42;2.13;;;3.90;99.90;;;;;;4934049;28;20568;-60
2023/01/31 08:41:25;;;;;;;21.95;2.10;;;3.50;99.90;;;;;;4941068;28;20424;-60
2023/01/31 08:43:51;;;;;;;20.38;2.15;;;3.80;99.90;;;;;;4952910;28;20110;-59
2023/01/31 08:46:17;;;;;;;33.88;3.78;;;3.90;99.90;;;;;;4952508;28;20043;-60
2023/01/31 08:48:43;;;;;;;36.58;3.08;;;3.80;99.90;;;;;;4953171;29;20083;-63
2023/01/31 08:51:11;;;;;;;27.30;2.17;;;3.90;99.90;;;;;;4949390;29;20036;-58
2023/01/31 08:53:44;;;;;;;22.60;2.08;;;4.50;99.90;;;;;;4948549;28;20090;-59
2023/01/31 08:56:11;;;;;;;24.83;2.17;;;4.20;99.90;;;;;;4952823;29;20516;-61
2023/01/31 08:58:40;;;;;;;20.17;1.83;;;3.90;99.90;;;;;;4953971;29;20126;-59
2023/01/31 09:01:11;;;;;;;11.07;1.65;;;3.90;99.90;;;;;;4954243;29;20035;-57
2023/01/31 09:03:37;;;;;;;17.38;1.80;;;4.00;99.90;;;;;;4954537;28;20047;-60
2023/01/31 09:06:06;;;;;;;14.32;2.00;;;4.00;99.90;;;;;;4954010;29;20123;-60
2023/01/31 09:08:32;;;;;;;32.03;3.03;;;4.10;99.90;;;;;;4954740;28;20066;-59
2023/01/31 09:10:59;;;;;;;15.45;1.73;;;4.10;99.90;;;;;;4954798;28;20489;-62
2023/01/31 09:13:26;;;;;;;19.38;1.70;;;4.10;99.90;;;;;;4954011;28;20504;-60
2023/01/31 09:16:03;;;;;;;15.60;2.13;;;4.30;99.90;;;;;;4952990;28;20118;-61
2023/01/31 09:18:29;;;;;;;17.58;2.25;;;4.00;99.90;;;;;;4953289;28;20099;-60
2023/01/31 09:20:55;;;;;;;16.17;2.42;;;4.10;99.90;;;;;;4952836;28;20123;-63
2023/01/31 09:23:21;;;;;;;26.10;2.55;;;4.10;99.90;;;;;;4953031;29;20397;-62
2023/01/31 09:25:54;;;;;;;35.50;3.25;;;4.10;99.90;;;;;;4952850;28;20035;-63
2023/01/31 09:28:21;;;;;;;25.25;3.00;;;4.50;99.90;;;;;;4952811;28;20028;-60
2023/01/31 09:30:48;;;;;;;24.63;2.20;;;4.20;99.90;;;;;;4953191;29;20038;-62
2023/01/31 09:33:14;;;;;;;21.13;2.92;;;4.30;99.90;;;;;;4953134;29;20027;-60
2023/01/31 09:35:39;;;;;;;32.00;2.63;;;4.30;99.90;;;;;;4953429;28;20042;-60
2023/01/31 09:38:05;;;;;;;23.35;2.85;;;4.30;99.90;;;;;;4942179;29;20166;-61
2023/01/31 09:40:33;;;;;;;32.22;4.78;;;4.40;99.90;;;;;;4933808;29;20087;-61
2023/01/31 09:43:02;;;;;;;19.55;2.22;;;4.50;99.90;;;;;;4933966;29;20020;-63
2023/01/31 09:45:34;;;;;;;20.55;2.55;;;4.50;99.90;;;;;;4932404;29;20042;-61
2023/01/31 09:48:01;;;;;;;22.38;2.90;;;4.60;99.90;;;;;;4947009;28;20115;-62
2023/01/31 09:50:33;;;;;;;20.48;3.53;;;4.60;99.90;;;;;;4947687;28;20129;-63
2023/01/31 09:52:59;;;;;;;19.92;2.92;;;4.60;99.90;;;;;;4947558;28;20028;-59
2023/01/31 09:55:31;;;;;;;19.13;1.98;;;4.60;99.90;;;;;;4945947;28;20185;-63
2023/01/31 09:58:27;;;;;;;21.35;2.55;;;4.70;99.90;;;;;;4946983;29;20033;-61
2023/01/31 10:01:10;;;;;;;23.75;3.53;;;4.70;99.90;;;;;;4948051;28;20078;-61
2023/01/31 10:04:01;;;;;;;32.28;2.00;;;4.80;99.90;;;;;;4946556;28;20118;-60
2023/01/31 10:06:39;;;;;;;33.72;2.70;;;4.80;99.90;;;;;;4939483;29;20473;-61
2023/01/31 10:09:39;;;;;;;14.75;1.95;;;4.90;99.90;;;;;;4944881;29;20028;-61
2023/01/31 10:12:20;;;;;;;16.27;1.80;;;4.80;99.90;;;;;;4952281;28;20082;-61
2023/01/31 10:14:53;;;;;;;22.73;2.63;;;4.80;99.90;;;;;;4952567;28;20492;-63
2023/01/31 10:17:38;;;;;;;21.35;2.38;;;4.80;99.90;;;;;;4955001;28;20022;-64
2023/01/31 10:20:17;;;;;;;21.77;2.08;;;4.90;99.90;;;;;;4953659;28;20087;-61
2023/01/31 10:22:45;;;;;;;19.92;1.90;;;5.00;99.90;;;;;;4953588;28;20019;-62
2023/01/31 10:25:25;;;;;;;22.02;2.10;;;5.00;99.90;;;;;;4955597;28;20089;-59
2023/01/31 10:28:00;;;;;;;15.40;1.90;;;5.00;99.90;;;;;;4953212;28;20031;-56
2023/01/31 10:30:41;;;;;;;17.13;2.50;;;5.00;99.90;;;;;;4947930;28;20051;-57
2023/01/31 10:33:42;;;;;;;30.73;2.58;;;5.00;99.90;;;;;;4947599;28;20027;-59
2023/01/31 10:36:28;;;;;;;20.40;1.92;;;4.90;99.90;;;;;;4912620;28;20027;-60
2023/01/31 10:38:56;;;;;;;27.55;3.33;;;4.90;99.90;;;;;;4947860;28;20031;-58
2023/01/31 10:41:44;;;;;;;24.20;2.15;;;4.80;99.90;;;;;;4951729;28;20034;-63
2023/01/31 10:44:22;;;;;;;27.08;2.90;;;4.80;99.90;;;;;;4943815;28;20060;-60
2023/01/31 10:46:50;;;;;;;29.45;3.45;;;4.80;99.90;;;;;;4950184;28;20508;-60
2023/01/31 10:49:19;;;;;;;24.13;2.88;;;4.80;99.90;;;;;;4952628;28;20385;-59
2023/01/31 10:51:55;;;;;;;17.38;2.05;;;5.00;99.90;;;;;;4951084;28;20145;-58
2023/01/31 10:54:41;;;;;;;26.80;2.30;;;5.00;99.90;;;;;;4950480;28;20027;-58
2023/01/31 10:57:07;;;;;;;31.60;2.85;;;5.00;99.90;;;;;;4946527;28;20493;-62
2023/01/31 10:59:37;;;;;;;17.13;2.65;;;3.40;99.90;;;;;;4945274;29;20046;-61
2023/01/31 11:02:04;;;;;;;29.25;2.45;;;5.10;99.90;;;;;;4934906;29;20710;-57
2023/01/31 11:04:35;;;;;;;25.58;2.63;;;5.10;99.90;;;;;;4951040;28;20043;-61
2023/01/31 11:07:01;;;;;;;23.23;3.42;;;5.10;99.90;;;;;;4950321;28;20061;-61
2023/01/31 11:09:32;;;;;;;14.52;2.10;;;5.10;99.90;;;;;;4947947;28;20020;-62
2023/01/31 11:12:04;;;;;;;20.58;2.92;;;5.10;99.90;;;;;;4947368;29;20035;-58
2023/01/31 11:14:30;;;;;;;24.98;2.50;;;5.20;99.90;;;;;;4952079;28;20034;-61
2023/01/31 11:17:05;;;;;;;23.77;3.70;;;5.20;99.90;;;;;;4951572;28;20031;-60
2023/01/31 11:19:44;;;;;;;16.27;2.92;;;5.30;99.90;;;;;;4951103;28;20023;-58
2023/01/31 11:22:26;;;;;;;31.55;2.75;;;5.30;99.90;;;;;;4941196;29;20019;-61
2023/01/31 11:24:52;;;;;;;29.45;3.75;;;5.20;99.90;;;;;;4946360;28;20024;-62
2023/01/31 11:27:30;;;;;;;21.45;2.88;;;5.20;99.90;;;;;;4943847;29;20034;-60
2023/01/31 11:29:58;;;;;;;30.30;4.15;;;5.20;99.90;;;;;;4951585;28;20405;-58
2023/01/31 11:32:27;;;;;;;28.17;3.55;;;5.20;99.90;;;;;;4950400;28;20438;-59
2023/01/31 11:35:03;;;;;;;21.90;3.42;;;5.10;99.90;;;;;;4950952;28;20128;-62
2023/01/31 11:37:30;;;;;;;26.63;2.65;;;5.20;99.90;;;;;;4949812;28;20134;-59
2023/01/31 11:40:18;;;;;;;13.57;3.15;;;5.20;99.90;;;;;;4949372;28;20107;-61
2023/01/31 11:42:54;;;;;;;25.17;4.43;;;5.20;99.90;;;;;;4948319;29;20031;-60
2023/01/31 11:45:23;;;;;;;30.33;4.80;;;5.20;99.90;;;;;;4949409;28;20045;-61
2023/01/31 11:47:54;;;;;;;23.10;2.97;;;5.20;99.90;;;;;;4949479;28;20019;-58
2023/01/31 11:50:39;;;;;;;29.23;5.28;;;5.20;99.90;;;;;;4949952;28;20461;-61
2023/01/31 11:53:24;;;;;;;25.25;4.45;;;5.20;99.90;;;;;;4949789;28;20041;-59
2023/01/31 11:55:53;;;;;;;26.05;4.28;;;5.20;99.90;;;;;;4949014;28;20444;-64
2023/01/31 11:58:28;;;;;;;39.55;4.32;;;5.20;99.90;;;;;;4945328;28;20031;-59
2023/01/31 12:01:01;;;;;;;17.05;3.42;;;5.20;99.90;;;;;;4950507;28;20031;-62
2023/01/31 12:03:28;;;;;;;32.97;4.03;;;5.10;99.90;;;;;;4950514;28;20029;-62
2023/01/31 12:06:07;;;;;;;25.98;3.72;;;5.20;99.90;;;;;;4948929;28;20040;-62
2023/01/31 12:11:20;;;;;;;28.17;3.78;;;5.20;99.90;;;;;;5354386;23;20580;-61
2023/01/31 12:14:00;;;;;;;36.20;5.72;;;5.10;99.90;;;;;;4966739;28;20039;-61
2023/01/31 12:16:28;;;;;;;24.55;3.15;;;5.10;99.90;;;;;;4969041;28;20518;-58
2023/01/31 12:18:57;;;;;;;38.67;4.28;;;5.00;99.90;;;;;;4969784;28;20406;-60
2023/01/31 12:22:03;;;;;;;33.75;5.10;;;4.90;99.90;;;;;;4969957;28;20022;-59
2023/01/31 12:24:47;;;;;;;29.13;4.03;;;4.90;99.90;;;;;;4972213;23;20102;-60
2023/01/31 12:27:26;;;;;;;14.63;3.53;;;4.90;99.90;;;;;;4970358;28;20065;-60
2023/01/31 12:30:10;;;;;;;22.60;4.15;;;4.90;99.90;;;;;;4967516;28;20027;-59
2023/01/31 12:33:30;;;;;;;24.30;3.17;;;4.80;99.90;;;;;;4964897;28;20582;-59
2023/01/31 12:36:25;;;;;;;18.20;4.60;;;4.80;99.90;;;;;;4920856;29;20903;-58
2023/01/31 12:39:16;;;;;;;15.47;3.83;;;4.80;99.90;;;;;;4972130;28;20047;-65
2023/01/31 12:42:03;;;;;;;26.52;4.53;;;5.30;99.90;;;;;;4968861;28;20019;-61
2023/01/31 12:44:46;;;;;;;29.85;4.85;;;4.70;99.90;;;;;;4963753;28;20413;-60
2023/01/31 12:47:36;;;;;;;26.80;4.57;;;4.70;99.90;;;;;;4965103;28;20019;-60
2023/01/31 12:50:14;;;;;;;27.25;3.88;;;4.80;99.90;;;;;;4961870;28;20046;-61
2023/01/31 12:52:50;;;;;;;21.67;4.78;;;4.60;99.90;;;;;;4969395;28;20034;-55
2023/01/31 12:55:45;;;;;;;32.45;5.13;;;4.60;99.90;;;;;;4955633;28;20032;-52
2023/01/31 12:58:19;;;;;;;22.95;5.00;;;4.50;99.90;;;;;;4967662;28;20470;-56
2023/01/31 13:00:58;;;;;;;15.38;5.22;;;4.50;99.90;;;;;;4969213;28;20054;-54
2023/01/31 13:04:01;;;;;;;35.58;5.63;;;4.50;99.90;;;;;;4964838;28;20367;-59
2023/01/31 13:06:42;;;;;;;26.55;6.47;;;4.40;99.90;;;;;;4964388;28;20129;-55
2023/01/31 13:09:33;;;;;;;28.83;6.45;;;4.30;99.90;;;;;;4968568;28;20035;-53
2023/01/31 13:12:10;;;;;;;32.20;8.18;;;4.30;99.90;;;;;;4964356;28;20026;-63
2023/01/31 13:14:44;;;;;;;24.10;7.28;;;4.20;99.90;;;;;;4966543;28;20025;-59
2023/01/31 13:17:16;;;;;;;48.35;9.68;;;4.30;99.90;;;;;;4970477;28;20058;-58
2023/01/31 13:19:56;;;;;;;27.92;6.47;;;4.30;99.90;;;;;;4963115;28;20099;-59